This is the latest recevied weather packets stored in our database for station/object WX3I. If no packets are shown the sender has not sent any weather packets the latest 10 day(s).
| Time | Temp. | Humidity | Pressure | Rain* | Wind** | Luminosity | Snow |
|---|---|---|---|---|---|---|---|
| 1777809604 | 6.67° C | 60% | 1015.3 hPa | 0 mm | - | 141 W/m² | - |
| 1777807804 | 6.67° C | 60% | 1015.1 hPa | 0 mm | - | 58 W/m² | - |
| 1777806305 | 6.11° C | 59% | 1014.8 hPa | 0 mm | - | 43 W/m² | - |
| 1777802404 | 6.11° C | 62% | 1013.9 hPa | 0 mm | - | 1 W/m² | - |
| 1777800904 | 6.11° C | 61% | 1013.5 hPa | 0 mm | - | 0 W/m² | - |
| 1777796704 | 5.56° C | 67% | 1012.9 hPa | 0 mm | - | 0 W/m² | - |
| 1777796104 | 5° C | 69% | 1012.9 hPa | 0 mm | - | 0 W/m² | - |
| 1777792204 | 5.56° C | 70% | 1012.5 hPa | 0 mm | - | 0 W/m² | - |
| 1777791605 | 6.11° C | 70% | 1012.6 hPa | 0 mm | - | 0 W/m² | - |
| 1777790405 | 6.11° C | 68% | 1012.6 hPa | 0 mm | - | 0 W/m² | - |
| 1777788305 | 7.22° C | 66% | 1012.9 hPa | 0 mm | - | 0 W/m² | - |
| 1777786805 | 7.78° C | 63% | 1013 hPa | 0 mm | - | 0 W/m² | - |
| 1777786204 | 7.78° C | 62% | 1013.1 hPa | 0 mm | - | 0 W/m² | - |
| 1777782904 | 8.33° C | 57% | 1013.5 hPa | 0 mm | - | 0 W/m² | - |
| 1777780204 | 9.44° C | 53% | 1013.6 hPa | 0 mm | - | 0 W/m² | - |
| 1777776904 | 8.89° C | 51% | 1013.7 hPa | 0 mm | - | 0 W/m² | - |
| 1777776305 | 9.44° C | 51% | 1013.7 hPa | 0 mm | - | 0 W/m² | - |
| 1777772404 | 10° C | 48% | 1013.8 hPa | 0 mm | - | 0 W/m² | - |
| 1777769404 | 11.11° C | 44% | 1013.4 hPa | 0 mm | - | 0 W/m² | - |
| 1777766104 | 11.67° C | 41% | 1013 hPa | 0 mm | - | 16 W/m² | - |
| 1777764604 | 12.22° C | 39% | 1012.7 hPa | 0 mm | - | 62 W/m² | - |
| 1777763104 | 12.78° C | 38% | 1012.9 hPa | 0 mm | - | 129 W/m² | - |
| 1777761604 | 12.78° C | 36% | 1012.8 hPa | 0 mm | - | 296 W/m² | - |
| 1777760704 | 13.33° C | 38% | 1012.7 hPa | 0 mm | - | 351 W/m² | - |
| 1777758904 | 13.89° C | 37% | 1012.6 hPa | 0 mm | - | 465 W/m² | - |
* Rain latest hour (hover to see other rain measurements)
** Current wind speed in m/s (hover to see current wind gust speed)